CW8722 Weather Reports


Display with metric or nautical units.
time (UTC)temp
F
wind
direction
speed
MPH
gust
MPH
rain 1hr
in
rain 24hr
in
rain mn
in
humidity
%
barometer
mb
20200329185642 94 289 2.0 0.0 0.00 0.00 0.00 54 1023.4
20200329184647 94 302 2.0 0.0 0.00 0.00 0.00 53 1023.6
20200329183622 93 280 2.0 0.0 0.00 0.00 0.00 54 1023.7
20200329182610 93 310 2.0 0.0 0.00 0.00 0.00 54 1023.9
20200329181537 92 270 1.0 0.0 0.00 0.00 0.00 57 1024.0
20200329180505 91 332 2.0 0.0 0.00 0.00 0.00 56 1024.2
20200329175448 91 243 1.0 0.0 0.00 0.00 0.00 57 1024.4
20200329174432 90 115 2.0 0.0 0.00 0.00 0.00 55 1024.4
20200329173409 89 270 1.0 0.0 0.00 0.00 0.00 59 1024.5
20200329172402 89 90 3.0 0.0 0.00 0.00 0.00 58 1024.5
20200329171414 88 258 1.0 0.0 0.00 0.00 0.00 60 1024.7
20200329170431 88 90 3.0 0.0 0.00 0.00 0.00 60 1024.8
20200329165432 87 251 1.0 0.0 0.00 0.00 0.00 63 1024.7
20200329161334 84 270 1.0 0.0 0.00 0.00 0.00 59 1025.0
20200329160303 83 219 1.0 0.0 0.00 0.00 0.00 58 1025.1
20200329155247 82 142 1.0 0.0 0.00 0.00 0.00 61 1025.2
20200329132408 72 90 1.0 0.0 0.00 0.00 0.00 82 1025.2
20200329131430 71 70 1.0 0.0 0.00 0.00 0.00 82 1025.2
20200329130434 71 37 1.0 0.0 0.00 0.00 0.00 82 1025.2
20200329085341 70 221 2.0 0.0 0.00 0.00 0.00 79 1021.9
20200329084324 70 255 3.0 0.0 0.00 0.00 0.00 79 1022.0
20200329083337 70 227 2.0 0.0 0.00 0.00 0.00 78 1022.0
20200329082336 70 329 3.0 0.0 0.00 0.00 0.00 79 1021.9
20200329081327 70 270 3.0 0.0 0.00 0.00 0.00 79 1021.8
20200329080305 69 246 3.0 0.0 0.00 0.00 0.00 79 1021.8
20200329075231 69 237 2.0 0.0 0.00 0.00 0.00 78 1021.8
20200329074216 69 254 2.0 0.0 0.00 0.00 0.00 77 1021.8
20200329073238 69 242 2.0 0.0 0.00 0.00 0.00 77 1021.8
20200329072212 69 236 2.0 0.0 0.00 0.00 0.00 77 1021.9
20200329071228 69 230 1.0 0.0 0.00 0.00 0.00 76 1022.0
20200329070218 69 245 1.0 0.0 0.00 0.00 0.00 75 1021.9
20200329041249 71 336 1.0 0.0 0.00 0.00 0.00 72 1022.6
20200329025129 73 317 1.0 0.0 0.00 0.00 0.00 71 1022.2
20200329024125 74 325 1.0 0.0 0.00 0.00 0.00 71 1022.2
20200329023143 74 327 1.0 0.0 0.00 0.00 0.00 70 1022.2
20200329022123 74 339 0.0 0.0 0.00 0.00 0.00 70 1022.1
20200329021131 74 329 0.0 0.0 0.00 0.00 0.00 70 1022.1
20200329020103 74 311 0.0 0.0 0.00 0.00 0.00 70 1022.0
20200329015035 75 304 0.0 0.0 0.00 0.00 0.00 70 1022.0
20200329014045 75 45 0.0 0.0 0.00 0.00 0.00 71 1021.9
20200328232225 82 227 1.0 0.0 0.00 0.00 0.00 67 1020.4
20200328231247 83 232 1.0 0.0 0.00 0.00 0.00 66 1020.4
20200328230218 83 227 1.0 0.0 0.00 0.00 0.00 65 1020.3
20200328225237 85 243 1.0 0.0 0.00 0.00 0.00 64 1020.3
20200328224229 86 245 1.0 0.0 0.00 0.00 0.00 62 1020.2
20200328221159 88 246 1.0 0.0 0.00 0.00 0.00 60 1019.9
20200328220137 89 234 1.0 0.0 0.00 0.00 0.00 59 1019.9